createdAt,value
2023-04-20T00:00:36.246Z,84.86
2023-04-20T00:03:21.654Z,85.17
2023-04-20T00:05:50.085Z,85.07
2023-04-20T00:08:17.841Z,85.32
2023-04-20T00:10:46.084Z,85.28
2023-04-20T00:13:13.755Z,85.23
2023-04-20T00:15:41.770Z,85.01
2023-04-20T00:18:09.494Z,85.32
2023-04-20T00:20:37.770Z,85.13
2023-04-20T00:23:05.724Z,85.52
2023-04-20T00:25:33.690Z,84.86
2023-04-20T00:28:01.351Z,85.06
2023-04-20T00:30:29.441Z,84.64
2023-04-20T00:32:58.446Z,84.74
2023-04-20T00:35:26.390Z,84.38
2023-04-20T00:37:54.083Z,84.48
2023-04-20T00:40:22.052Z,84.29
2023-04-20T00:42:49.653Z,84.34
2023-04-20T00:45:17.563Z,84.45
2023-04-20T00:47:46.280Z,84.53
2023-04-20T00:50:14.807Z,84.67
2023-04-20T00:52:42.797Z,84.06
2023-04-20T00:55:13.890Z,84.14
2023-04-20T00:57:42.900Z,84.01
2023-04-20T01:00:11.460Z,83.75
2023-04-20T01:02:39.195Z,83.42
2023-04-20T01:05:09.448Z,83.09
2023-04-20T01:07:37.194Z,83.33
2023-04-20T01:10:09.484Z,83.05
2023-04-20T01:12:40.551Z,82.67
2023-04-20T01:15:09.607Z,82.90
2023-04-20T01:17:40.500Z,83.11
2023-04-20T01:20:14.719Z,83.16
2023-04-20T01:22:50.943Z,83.01
2023-04-20T01:25:19.228Z,83.42
2023-04-20T01:27:47.592Z,83.04
2023-04-20T01:30:17.283Z,83.04
2023-04-20T01:32:45.463Z,83.15
2023-04-20T01:35:13.960Z,82.88
2023-04-20T01:37:42.321Z,82.81
2023-04-20T01:40:12.257Z,82.45
2023-04-20T01:42:40.388Z,82.46
2023-04-20T01:45:09.050Z,82.36
2023-04-20T01:47:37.087Z,82.42
2023-04-20T01:50:05.406Z,82.92
2023-04-20T01:52:33.126Z,82.93
2023-04-20T01:55:01.090Z,82.85
2023-04-20T01:57:28.860Z,82.60
2023-04-20T01:59:57.147Z,82.93
2023-04-20T02:02:24.850Z,82.39
2023-04-20T02:04:53.920Z,82.59
2023-04-20T02:07:21.664Z,82.75
2023-04-20T02:12:58.814Z,83.41
2023-04-20T02:15:26.831Z,83.01
2023-04-20T02:17:54.389Z,82.67
2023-04-20T02:20:22.384Z,82.84
2023-04-20T02:22:50.245Z,82.96
2023-04-20T02:25:18.788Z,83.46
2023-04-20T02:27:46.455Z,83.35
2023-04-20T02:30:14.417Z,83.41
2023-04-20T02:32:43.709Z,84.23
2023-04-20T02:35:12.378Z,84.65
2023-04-20T02:37:39.988Z,84.30
2023-04-20T02:40:08.660Z,84.42
2023-04-20T02:42:36.458Z,84.60
2023-04-20T02:45:08.095Z,84.40
2023-04-20T02:47:36.280Z,84.97
2023-04-20T02:50:04.932Z,85.04
2023-04-20T02:52:39.298Z,84.46
2023-04-20T02:55:08.239Z,84.58
2023-04-20T02:57:37.313Z,84.87
2023-04-20T03:00:05.724Z,85.12
2023-04-20T03:02:48.072Z,84.84
2023-04-20T03:05:16.186Z,84.97
2023-04-20T03:07:45.178Z,85.19
2023-04-20T03:10:14.145Z,85.45
2023-04-20T03:12:54.154Z,85.16
2023-04-20T03:15:25.181Z,85.35
2023-04-20T03:18:06.464Z,85.43
2023-04-20T03:21:05.725Z,85.61
2023-04-20T03:23:33.364Z,85.80
2023-04-20T03:26:02.989Z,85.88
2023-04-20T03:28:59.046Z,86.26
2023-04-20T03:31:28.049Z,86.79
2023-04-20T03:33:57.799Z,86.92
2023-04-20T03:36:25.727Z,86.28
2023-04-20T03:38:53.330Z,86.41
2023-04-20T03:41:22.219Z,86.46
2023-04-20T03:43:49.796Z,86.36
2023-04-20T03:46:17.876Z,86.40
2023-04-20T03:48:45.525Z,86.29
2023-04-20T03:51:13.928Z,86.59
2023-04-20T03:53:41.560Z,86.01
2023-04-20T03:56:12.634Z,85.78
2023-04-20T03:58:40.560Z,86.12
2023-04-20T04:01:14.030Z,85.78
2023-04-20T04:03:47.040Z,84.99
2023-04-20T04:06:15.250Z,85.42
2023-04-20T04:08:43.072Z,84.93
2023-04-20T04:11:10.958Z,84.70
2023-04-20T04:13:38.533Z,84.37
2023-04-20T04:16:09.179Z,84.51
2023-04-20T04:18:38.164Z,84.78
2023-04-20T04:21:10.972Z,84.93
2023-04-20T04:23:42.443Z,84.30
2023-04-20T04:26:33.681Z,83.91
2023-04-20T04:29:02.046Z,83.85
2023-04-20T04:31:30.107Z,84.44
2023-04-20T04:34:03.873Z,83.74
2023-04-20T04:36:39.012Z,82.88
2023-04-20T04:39:09.713Z,82.77
2023-04-20T04:41:39.034Z,82.48
2023-04-20T04:44:19.852Z,82.39
2023-04-20T04:46:48.339Z,82.02
2023-04-20T04:49:16.296Z,81.24
2023-04-20T04:51:44.389Z,80.72
2023-04-20T04:54:12.058Z,80.09
2023-04-20T04:56:39.872Z,79.22
2023-04-20T04:59:07.449Z,78.32
2023-04-20T05:01:35.310Z,76.81
2023-04-20T05:04:03.069Z,75.73
2023-04-20T05:06:31.378Z,74.14
2023-04-20T05:08:58.890Z,71.55
2023-04-20T05:11:26.771Z,70.60
2023-04-20T05:13:54.773Z,69.89
2023-04-20T05:16:22.752Z,69.06
2023-04-20T05:18:51.551Z,68.20
2023-04-20T05:21:19.406Z,67.59
2023-04-20T05:23:47.005Z,68.05
2023-04-20T05:26:14.817Z,68.56
2023-04-20T05:28:42.787Z,69.38
2023-04-20T05:31:10.667Z,69.22
2023-04-20T05:33:39.464Z,69.16
2023-04-20T05:36:10.207Z,69.92
2023-04-20T05:38:37.999Z,70.17
2023-04-20T05:41:06.564Z,69.64
2023-04-20T05:43:42.037Z,68.42
2023-04-20T05:46:09.915Z,68.04
2023-04-20T05:48:37.464Z,66.95
2023-04-20T05:51:05.543Z,66.61
2023-04-20T05:53:33.066Z,65.87
2023-04-20T05:56:01.058Z,65.91
2023-04-20T05:58:28.994Z,64.79
2023-04-20T06:00:56.864Z,64.41
2023-04-20T06:03:24.690Z,64.44
2023-04-20T06:05:52.754Z,63.07
2023-04-20T06:08:20.817Z,61.35
2023-04-20T06:10:48.709Z,59.01
2023-04-20T06:13:16.235Z,56.98
2023-04-20T06:15:44.185Z,54.92
2023-04-20T06:18:11.830Z,52.77
2023-04-20T06:20:40.434Z,50.67
2023-04-20T06:23:08.044Z,48.73
2023-04-20T06:25:39.644Z,47.02
2023-04-20T06:28:07.508Z,46.64
2023-04-20T06:30:35.700Z,45.32
2023-04-20T06:33:03.917Z,44.41
2023-04-20T06:35:31.747Z,42.72
2023-04-20T06:38:02.447Z,42.51
2023-04-20T06:40:30.351Z,42.45
2023-04-20T06:42:57.956Z,41.73
2023-04-20T06:45:25.917Z,42.09
2023-04-20T06:47:53.896Z,41.43
2023-04-20T06:50:22.194Z,40.25
2023-04-20T06:52:49.809Z,39.96
2023-04-20T06:55:20.076Z,38.67
2023-04-20T06:57:47.793Z,37.48
2023-04-20T07:00:16.590Z,36.74
2023-04-20T07:02:51.633Z,34.63
2023-04-20T07:05:20.345Z,34.36
2023-04-20T07:07:48.009Z,34.58
2023-04-20T07:10:16.479Z,34.91
2023-04-20T07:12:44.426Z,35.31
2023-04-20T07:15:12.896Z,35.05
2023-04-20T07:17:40.861Z,34.89
2023-04-20T07:20:09.428Z,35.04
2023-04-20T07:22:38.258Z,34.50
2023-04-20T07:25:08.288Z,33.16
2023-04-20T07:27:38.146Z,32.57
2023-04-20T07:30:07.503Z,32.55
2023-04-20T07:32:36.711Z,32.55
2023-04-20T07:35:05.000Z,32.56
2023-04-20T07:37:34.715Z,31.45
2023-04-20T07:40:06.487Z,29.14
2023-04-20T07:42:36.934Z,28.26
2023-04-20T07:45:06.257Z,26.81
2023-04-20T07:47:37.514Z,24.91
2023-04-20T07:50:06.778Z,24.66
2023-04-20T07:52:34.520Z,23.56
2023-04-20T07:55:02.585Z,23.64
2023-04-20T07:57:30.529Z,24.04
2023-04-20T07:59:58.403Z,24.68
2023-04-20T08:02:26.394Z,24.81
2023-04-20T08:04:55.397Z,23.84
2023-04-20T08:07:23.995Z,22.64
2023-04-20T08:09:51.939Z,23.16
2023-04-20T08:12:19.482Z,23.89
2023-04-20T08:14:47.438Z,25.02
2023-04-20T08:17:14.950Z,25.39
2023-04-20T08:19:44.970Z,27.01
2023-04-20T08:22:13.699Z,28.11
2023-04-20T08:24:41.600Z,27.64
2023-04-20T08:27:09.573Z,25.85
2023-04-20T08:29:38.258Z,25.17
2023-04-20T08:32:09.060Z,24.21
2023-04-20T08:34:37.189Z,24.01
2023-04-20T08:37:05.429Z,23.06
2023-04-20T08:39:33.529Z,23.22
2023-04-20T08:42:02.165Z,21.83
2023-04-20T08:44:30.171Z,23.40
2023-04-20T08:46:57.999Z,24.19
2023-04-20T08:49:29.960Z,24.24
2023-04-20T08:51:57.668Z,23.91
2023-04-20T08:54:25.976Z,23.63
2023-04-20T08:56:54.205Z,23.72
2023-04-20T08:59:22.355Z,23.80
2023-04-20T09:01:49.932Z,23.90
2023-04-20T09:04:27.209Z,23.29
2023-04-20T09:06:56.481Z,24.18
2023-04-20T09:09:27.981Z,23.78
2023-04-20T09:12:07.347Z,23.41
2023-04-20T09:14:48.836Z,23.07
2023-04-20T09:17:18.119Z,23.38
2023-04-20T09:19:54.298Z,23.23
2023-04-20T09:22:35.883Z,22.35
2023-04-20T09:25:17.602Z,22.01
2023-04-20T09:27:59.744Z,21.46
2023-04-20T09:30:42.350Z,20.18
2023-04-20T09:33:12.276Z,20.34
2023-04-20T09:35:42.088Z,20.59
2023-04-20T09:38:11.674Z,22.04
2023-04-20T09:40:39.586Z,23.52
2023-04-20T09:43:18.560Z,24.25
2023-04-20T09:45:46.593Z,24.75
2023-04-20T09:48:19.730Z,24.23
2023-04-20T09:50:50.582Z,23.68
2023-04-20T09:53:20.498Z,22.28
2023-04-20T09:55:50.312Z,21.64
2023-04-20T09:58:21.850Z,20.46
2023-04-20T10:00:50.480Z,20.06
2023-04-20T10:03:19.816Z,19.92
2023-04-20T10:05:48.401Z,20.01
2023-04-20T10:08:16.685Z,20.09
2023-04-20T10:10:51.625Z,19.63
2023-04-20T10:13:21.772Z,19.69
2023-04-20T10:15:49.770Z,20.92
2023-04-20T10:18:19.564Z,21.61
2023-04-20T10:20:48.119Z,22.19
2023-04-20T10:23:16.581Z,22.62
2023-04-20T10:25:55.750Z,23.20
2023-04-20T10:28:23.489Z,23.90
2023-04-20T10:30:53.549Z,23.69
2023-04-20T10:33:22.839Z,24.79
2023-04-20T10:35:55.053Z,24.62
2023-04-20T10:38:32.778Z,24.49
2023-04-20T10:41:11.313Z,24.33
2023-04-20T10:43:42.276Z,24.14
2023-04-20T10:46:18.298Z,24.61
2023-04-20T10:49:02.148Z,24.88
2023-04-20T10:51:30.964Z,25.00
2023-04-20T10:54:06.578Z,25.60
2023-04-20T10:56:39.242Z,25.27
2023-04-20T10:59:08.618Z,25.68
2023-04-20T11:01:36.713Z,25.49
2023-04-20T11:04:05.087Z,25.37
2023-04-20T11:06:33.336Z,25.03
2023-04-20T11:09:01.352Z,25.00
2023-04-20T11:11:29.216Z,24.79
2023-04-20T11:14:10.608Z,25.15
2023-04-20T11:16:50.736Z,25.07
2023-04-20T11:19:29.659Z,25.48
2023-04-20T11:21:58.334Z,26.16
2023-04-20T11:24:31.678Z,26.44
2023-04-20T11:27:00.196Z,26.15
2023-04-20T11:29:35.836Z,25.79
2023-04-20T11:32:06.542Z,25.06
2023-04-20T11:34:36.123Z,25.35
2023-04-20T11:37:10.102Z,25.14
2023-04-20T11:39:39.143Z,24.33
2023-04-20T11:42:07.303Z,24.52
2023-04-20T11:44:36.788Z,24.91
2023-04-20T11:47:05.073Z,25.16
2023-04-20T11:49:32.727Z,25.57
2023-04-20T11:52:00.759Z,25.83
2023-04-20T11:54:29.899Z,25.89
2023-04-20T11:56:59.038Z,25.92
2023-04-20T11:59:26.723Z,25.29
2023-04-20T12:01:54.697Z,24.99
2023-04-20T12:04:22.374Z,24.87
2023-04-20T12:06:50.501Z,24.49
2023-04-20T12:09:18.438Z,24.39
2023-04-20T12:11:46.653Z,23.75
2023-04-20T12:14:14.190Z,24.00
2023-04-20T12:16:42.207Z,24.01
2023-04-20T12:19:09.895Z,24.00
2023-04-20T12:21:38.035Z,23.67
2023-04-20T12:24:05.944Z,23.45
2023-04-20T12:26:38.427Z,23.25
2023-04-20T12:29:07.607Z,23.30
2023-04-20T12:31:36.161Z,23.44
2023-04-20T12:34:04.244Z,23.73
2023-04-20T12:36:32.592Z,23.80
2023-04-20T12:39:01.714Z,23.41
2023-04-20T12:41:29.637Z,22.61
2023-04-20T12:43:57.266Z,22.80
2023-04-20T12:46:25.520Z,22.74
2023-04-20T12:48:53.271Z,22.61
2023-04-20T12:51:21.188Z,22.33
2023-04-20T12:53:48.843Z,22.74
2023-04-20T12:56:16.939Z,23.12
2023-04-20T12:58:44.593Z,23.46
2023-04-20T13:01:12.485Z,23.83
2023-04-20T13:03:40.705Z,24.07
2023-04-20T13:06:12.297Z,24.19
2023-04-20T13:08:41.430Z,24.22
2023-04-20T13:11:12.471Z,23.96
2023-04-20T13:13:40.065Z,24.06
2023-04-20T13:16:07.885Z,23.90
2023-04-20T13:18:35.570Z,24.08
2023-04-20T13:21:03.533Z,23.30
2023-04-20T13:23:31.147Z,23.34
